Time;durP1;ratioP1;P1;durP2;ratioP2;P2;SDS_P1;SDS_P2;PMS_P1;PMS_P2;Temp;Humidity;BMP_temperature;BMP_pressure;BME280_temperature;BME280_humidity;BME280_pressure;Samples;Min_cycle;Max_cycle;Signal;HPM_P1;HPM_P2
2023/05/15 00:00:11;;;;;;;20.70;13.82;;;;;;;;;;5034901;28;20116;-61
2023/05/15 00:02:38;;;;;;;21.48;14.68;;;;;;;;;;5034750;28;20180;-61
2023/05/15 00:05:05;;;;;;;21.60;14.80;;;;;;;;;;5017237;28;20032;-60
2023/05/15 00:07:31;;;;;;;23.83;13.77;;;;;;;;;;5017243;28;20025;-59
2023/05/15 00:09:57;;;;;;;20.55;13.65;;;;;;;;;;5034113;28;20105;-63
2023/05/15 00:12:23;;;;;;;21.67;15.35;;;;;;;;;;5030805;28;20041;-59
2023/05/15 00:14:49;;;;;;;20.77;13.95;;;;;;;;;;5034034;28;20033;-60
2023/05/15 00:17:15;;;;;;;19.95;14.00;;;;;;;;;;5034373;28;20393;-61
2023/05/15 00:19:41;;;;;;;22.40;14.32;;;;;;;;;;5034223;28;20073;-60
2023/05/15 00:22:07;;;;;;;20.92;14.93;;;;;;;;;;5034281;28;20021;-59
2023/05/15 00:24:34;;;;;;;23.95;14.50;;;;;;;;;;5016239;28;20120;-59
2023/05/15 00:27:00;;;;;;;21.98;14.98;;;;;;;;;;5034034;28;20032;-58
2023/05/15 00:29:26;;;;;;;21.42;14.30;;;;;;;;;;5033945;28;20079;-60
2023/05/15 00:31:52;;;;;;;20.42;14.27;;;;;;;;;;5034018;28;20108;-59
2023/05/15 00:34:18;;;;;;;21.30;13.75;;;;;;;;;;5033926;28;20075;-60
2023/05/15 00:36:44;;;;;;;19.75;13.98;;;;;;;;;;5033965;28;20044;-61
2023/05/15 00:39:10;;;;;;;21.15;14.38;;;;;;;;;;5034016;28;20045;-60
2023/05/15 00:41:37;;;;;;;21.92;13.48;;;;;;;;;;5033939;28;20174;-61
2023/05/15 00:44:03;;;;;;;21.15;13.55;;;;;;;;;;5033746;28;20445;-60
2023/05/15 00:46:30;;;;;;;19.25;12.95;;;;;;;;;;5033791;28;20100;-60
2023/05/15 00:48:57;;;;;;;19.80;13.25;;;;;;;;;;5016187;28;20021;-59
2023/05/15 00:51:23;;;;;;;20.48;14.35;;;;;;;;;;5016097;28;20033;-59
2023/05/15 00:53:53;;;;;;;20.33;13.55;;;;;;;;;;5033890;28;20104;-58
2023/05/15 00:56:20;;;;;;;26.90;14.40;;;;;;;;;;5033361;28;20108;-59
2023/05/15 00:58:46;;;;;;;21.08;13.70;;;;;;;;;;5033732;28;20025;-59
2023/05/15 01:01:14;;;;;;;21.98;14.48;;;;;;;;;;5033670;28;20017;-56
2023/05/15 01:03:40;;;;;;;20.63;13.77;;;;;;;;;;5015138;28;20022;-58
2023/05/15 01:06:06;;;;;;;21.15;14.20;;;;;;;;;;5032849;28;20029;-58
2023/05/15 01:08:32;;;;;;;20.73;14.50;;;;;;;;;;5033553;28;20033;-59
2023/05/15 01:10:58;;;;;;;20.45;14.20;;;;;;;;;;5033449;28;20037;-59
2023/05/15 01:13:24;;;;;;;22.08;14.02;;;;;;;;;;5015766;28;20120;-58
2023/05/15 01:15:50;;;;;;;21.13;13.70;;;;;;;;;;5033089;28;20059;-58
2023/05/15 01:18:17;;;;;;;22.58;14.48;;;;;;;;;;5032958;28;20029;-57
2023/05/15 01:20:49;;;;;;;20.63;13.95;;;;;;;;;;5033008;28;20079;-55
2023/05/15 01:23:34;;;;;;;21.13;14.85;;;;;;;;;;5032845;28;20021;-59
2023/05/15 01:26:20;;;;;;;20.95;14.30;;;;;;;;;;5014901;28;20116;-59
2023/05/15 01:28:49;;;;;;;21.13;14.73;;;;;;;;;;5032947;28;20081;-60
2023/05/15 01:31:18;;;;;;;22.55;14.82;;;;;;;;;;5033050;28;20017;-59
2023/05/15 01:33:44;;;;;;;;;;;;;;;;;;5033577;28;20393;-58
2023/05/15 01:36:14;;;;;;;21.98;15.43;;;;;;;;;;5033287;28;20288;-59
2023/05/15 01:38:48;;;;;;;23.77;14.98;;;;;;;;;;5015770;28;20393;-60
2023/05/15 01:41:14;;;;;;;22.55;14.65;;;;;;;;;;5033514;28;20029;-60
2023/05/15 01:43:42;;;;;;;21.65;15.23;;;;;;;;;;5015521;28;20017;-60
2023/05/15 01:46:08;;;;;;;21.88;15.60;;;;;;;;;;5015017;28;20021;-60
2023/05/15 01:48:35;;;;;;;22.60;15.32;;;;;;;;;;5033046;28;20083;-57
2023/05/15 01:51:02;;;;;;;22.27;15.95;;;;;;;;;;5033133;28;20029;-60
2023/05/15 01:53:30;;;;;;;25.75;16.27;;;;;;;;;;5032662;28;20398;-60
2023/05/15 01:55:57;;;;;;;24.48;16.02;;;;;;;;;;5032244;28;20022;-59
2023/05/15 01:58:24;;;;;;;22.50;14.50;;;;;;;;;;5032293;28;20041;-60
2023/05/15 02:00:51;;;;;;;22.83;15.45;;;;;;;;;;5032329;28;20088;-58
2023/05/15 02:03:18;;;;;;;22.58;15.30;;;;;;;;;;5032408;28;20545;-60
2023/05/15 02:05:45;;;;;;;24.38;17.45;;;;;;;;;;5031954;28;20052;-59
2023/05/15 02:08:12;;;;;;;26.85;17.27;;;;;;;;;;5014557;28;20026;-60
2023/05/15 02:10:38;;;;;;;23.63;16.48;;;;;;;;;;5032248;28;20083;-60
2023/05/15 02:13:05;;;;;;;22.65;16.40;;;;;;;;;;5028835;28;20022;-60
2023/05/15 02:15:31;;;;;;;25.08;17.52;;;;;;;;;;5011121;28;20052;-58
2023/05/15 02:17:57;;;;;;;24.85;17.95;;;;;;;;;;5031724;28;20022;-60
2023/05/15 02:20:23;;;;;;;22.63;16.58;;;;;;;;;;5032060;28;20049;-60
2023/05/15 02:22:49;;;;;;;24.67;16.73;;;;;;;;;;5014219;28;20111;-59
2023/05/15 02:25:15;;;;;;;24.88;18.58;;;;;;;;;;5031496;28;20052;-59
2023/05/15 02:27:51;;;;;;;25.35;18.52;;;;;;;;;;5031729;28;20017;-60
2023/05/15 02:30:17;;;;;;;26.48;19.52;;;;;;;;;;5031892;28;20389;-60
2023/05/15 02:32:50;;;;;;;27.17;19.73;;;;;;;;;;5013888;28;20021;-60
2023/05/15 02:35:35;;;;;;;28.92;18.98;;;;;;;;;;5031623;28;20034;-60
2023/05/15 02:38:03;;;;;;;27.33;20.13;;;;;;;;;;5031659;28;20029;-60
2023/05/15 02:40:29;;;;;;;25.90;19.50;;;;;;;;;;5031707;28;20029;-60
2023/05/15 02:42:56;;;;;;;27.25;19.30;;;;;;;;;;5031740;28;20017;-59
2023/05/15 02:45:23;;;;;;;26.52;20.10;;;;;;;;;;5031374;28;20222;-60
2023/05/15 02:47:50;;;;;;;28.00;20.50;;;;;;;;;;5031499;28;20022;-59
2023/05/15 02:50:16;;;;;;;29.13;20.80;;;;;;;;;;5031571;28;20030;-56
2023/05/15 02:52:42;;;;;;;28.15;20.85;;;;;;;;;;5031448;28;20435;-60
2023/05/15 02:55:09;;;;;;;29.52;22.58;;;;;;;;;;5031348;28;20507;-59
2023/05/15 02:57:35;;;;;;;27.20;20.77;;;;;;;;;;5013603;28;20083;-60
2023/05/15 03:00:01;;;;;;;32.58;23.02;;;;;;;;;;5031318;28;20025;-60
2023/05/15 03:02:27;;;;;;;29.38;21.85;;;;;;;;;;5031512;28;20022;-61
2023/05/15 03:04:53;;;;;;;29.65;22.02;;;;;;;;;;5031201;28;20389;-58
2023/05/15 03:07:19;;;;;;;29.63;22.40;;;;;;;;;;5031380;28;20025;-58
2023/05/15 03:09:45;;;;;;;31.10;22.67;;;;;;;;;;5031456;28;20030;-56
2023/05/15 03:12:11;;;;;;;31.45;23.45;;;;;;;;;;5031453;28;20331;-60
2023/05/15 03:14:37;;;;;;;33.95;22.40;;;;;;;;;;5031368;28;20031;-58
2023/05/15 03:17:03;;;;;;;35.22;26.45;;;;;;;;;;5031333;28;20039;-59
2023/05/15 03:19:30;;;;;;;31.38;24.23;;;;;;;;;;5031390;28;20034;-60
2023/05/15 03:21:56;;;;;;;31.92;24.00;;;;;;;;;;5031442;28;20029;-59
2023/05/15 03:24:22;;;;;;;32.30;23.27;;;;;;;;;;5031038;28;20382;-60
2023/05/15 03:26:48;;;;;;;33.92;24.00;;;;;;;;;;5025631;28;20025;-59
2023/05/15 03:29:14;;;;;;;32.38;24.00;;;;;;;;;;5016991;28;20029;-60
2023/05/15 03:31:40;;;;;;;40.15;27.25;;;;;;;;;;5017127;28;20620;-60
2023/05/15 03:34:06;;;;;;;42.80;29.90;;;;;;;;;;5034675;28;20100;-61
2023/05/15 03:36:31;;;;;;;44.58;32.80;;;;;;;;;;5034897;28;20494;-59
2023/05/15 03:38:57;;;;;;;46.03;34.53;;;;;;;;;;5017102;28;20026;-60
2023/05/15 03:41:24;;;;;;;44.40;34.17;;;;;;;;;;5035008;28;20121;-60
2023/05/15 03:43:50;;;;;;;48.67;31.95;;;;;;;;;;5034693;28;20041;-60
2023/05/15 03:46:16;;;;;;;44.10;33.10;;;;;;;;;;5016297;28;20099;-60
2023/05/15 03:48:42;;;;;;;44.38;32.90;;;;;;;;;;5034414;28;20029;-59
2023/05/15 03:51:08;;;;;;;48.03;34.78;;;;;;;;;;5034742;28;20099;-60
2023/05/15 03:53:34;;;;;;;46.90;33.05;;;;;;;;;;5034648;28;20033;-59
2023/05/15 03:56:00;;;;;;;51.40;36.75;;;;;;;;;;5034516;28;20033;-60
2023/05/15 03:58:26;;;;;;;56.55;40.08;;;;;;;;;;5034349;28;20505;-58
2023/05/15 04:00:53;;;;;;;53.22;38.47;;;;;;;;;;5034736;28;20029;-58
2023/05/15 04:03:19;;;;;;;56.85;39.97;;;;;;;;;;5034562;28;20104;-58
2023/05/15 04:05:48;;;;;;;61.38;40.97;;;;;;;;;;5034410;28;20392;-60
2023/05/15 04:08:14;;;;;;;62.55;42.10;;;;;;;;;;5016647;28;20024;-60
2023/05/15 04:10:40;;;;;;;64.50;42.92;;;;;;;;;;5034493;28;20049;-60
2023/05/15 04:13:06;;;;;;;56.95;40.15;;;;;;;;;;5034492;28;20065;-58
2023/05/15 04:15:32;;;;;;;63.50;42.55;;;;;;;;;;5016382;28;20075;-59
2023/05/15 04:17:58;;;;;;;63.72;42.47;;;;;;;;;;5034003;28;20508;-60
2023/05/15 04:20:24;;;;;;;60.78;42.08;;;;;;;;;;5034283;28;20026;-58
2023/05/15 04:22:51;;;;;;;68.43;43.55;;;;;;;;;;5034166;28;20018;-54
2023/05/15 04:25:17;;;;;;;70.72;46.35;;;;;;;;;;5033775;28;20167;-58
2023/05/15 04:27:43;;;;;;;60.33;42.45;;;;;;;;;;5034284;28;20422;-60
2023/05/15 04:30:10;;;;;;;63.60;43.42;;;;;;;;;;5033995;28;20033;-60
2023/05/15 04:32:38;;;;;;;60.83;44.33;;;;;;;;;;5033927;28;20143;-58
2023/05/15 04:35:04;;;;;;;61.63;43.97;;;;;;;;;;5033736;28;20113;-60
2023/05/15 04:37:31;;;;;;;66.93;44.97;;;;;;;;;;5033718;28;20049;-59
2023/05/15 04:39:57;;;;;;;61.92;44.88;;;;;;;;;;5033582;28;20152;-58
2023/05/15 04:42:23;;;;;;;59.10;42.70;;;;;;;;;;5033598;28;20028;-59
2023/05/15 04:44:49;;;;;;;66.30;46.40;;;;;;;;;;5027508;28;20025;-60
2023/05/15 04:47:15;;;;;;;64.80;44.17;;;;;;;;;;5032167;28;20028;-60
2023/05/15 04:49:41;;;;;;;68.10;45.63;;;;;;;;;;5033521;28;20116;-60
2023/05/15 04:52:08;;;;;;;62.92;43.38;;;;;;;;;;5033389;28;20036;-61
2023/05/15 04:54:34;;;;;;;61.65;43.45;;;;;;;;;;5032718;28;20025;-60
2023/05/15 04:57:00;;;;;;;62.58;43.97;;;;;;;;;;5033022;28;20116;-60
2023/05/15 04:59:27;;;;;;;68.75;47.13;;;;;;;;;;5033005;28;20022;-59
2023/05/15 05:01:53;;;;;;;67.03;45.30;;;;;;;;;;5033264;28;20024;-59
2023/05/15 05:04:19;;;;;;;71.30;47.25;;;;;;;;;;5032964;28;20477;-59
2023/05/15 05:06:46;;;;;;;66.93;45.00;;;;;;;;;;5033348;28;20022;-59
2023/05/15 05:09:12;;;;;;;68.93;47.72;;;;;;;;;;5033291;28;20064;-60
2023/05/15 05:11:42;;;;;;;64.90;44.40;;;;;;;;;;5033014;28;20033;-64
2023/05/15 05:14:08;;;;;;;71.82;45.50;;;;;;;;;;5014810;28;20104;-59
2023/05/15 05:16:34;;;;;;;66.28;44.03;;;;;;;;;;5032800;28;20025;-59
2023/05/15 05:19:00;;;;;;;75.22;46.30;;;;;;;;;;5032480;28;20032;-60
2023/05/15 05:21:26;;;;;;;70.70;43.50;;;;;;;;;;5014845;28;20026;-61
2023/05/15 05:23:52;;;;;;;75.20;46.28;;;;;;;;;;5014687;28;20639;-59
2023/05/15 05:26:18;;;;;;;84.28;44.33;;;;;;;;;;5032334;28;20035;-59
2023/05/15 05:28:44;;;;;;;76.55;44.40;;;;;;;;;;5014280;28;20033;-60
2023/05/15 05:31:10;;;;;;;85.47;43.22;;;;;;;;;;5032388;28;20029;-60
2023/05/15 05:33:36;;;;;;;67.97;41.50;;;;;;;;;;5032397;28;20514;-60
2023/05/15 05:36:02;;;;;;;72.18;45.42;;;;;;;;;;5014472;28;20033;-61
2023/05/15 05:38:28;;;;;;;78.38;41.95;;;;;;;;;;5032133;28;20474;-63
2023/05/15 05:40:54;;;;;;;68.97;42.00;;;;;;;;;;5032063;28;20029;-57
2023/05/15 05:43:20;;;;;;;66.65;38.80;;;;;;;;;;5032286;28;20067;-60
2023/05/15 05:45:47;;;;;;;71.47;38.22;;;;;;;;;;5032119;28;20454;-60
2023/05/15 05:48:13;;;;;;;71.30;41.42;;;;;;;;;;5032376;28;20029;-61
2023/05/15 05:50:39;;;;;;;74.07;43.65;;;;;;;;;;5031767;28;20052;-60
2023/05/15 05:53:05;;;;;;;68.70;40.97;;;;;;;;;;5031472;28;20021;-60
2023/05/15 05:55:31;;;;;;;69.20;41.92;;;;;;;;;;5031314;28;20021;-59
2023/05/15 05:57:57;;;;;;;82.00;41.30;;;;;;;;;;5055487;22;20041;-56
2023/05/15 06:00:24;;;;;;;78.30;41.22;;;;;;;;;;5068566;28;20068;-52
2023/05/15 06:02:54;;;;;;;72.28;40.70;;;;;;;;;;5052549;28;20112;-56
2023/05/15 06:05:22;;;;;;;64.45;39.03;;;;;;;;;;5052468;28;20059;-55
2023/05/15 06:07:48;;;;;;;79.78;42.10;;;;;;;;;;5052245;28;20108;-53
2023/05/15 06:10:14;;;;;;;100.20;41.80;;;;;;;;;;5052465;28;20083;-54
2023/05/15 06:12:40;;;;;;;69.40;41.83;;;;;;;;;;5052188;28;20041;-55
2023/05/15 06:15:06;;;;;;;71.15;39.50;;;;;;;;;;5050642;28;20083;-55
2023/05/15 06:17:32;;;;;;;62.28;38.33;;;;;;;;;;5048378;28;20028;-55
2023/05/15 06:19:58;;;;;;;66.93;40.10;;;;;;;;;;5051856;28;20025;-57
2023/05/15 06:22:24;;;;;;;78.88;39.80;;;;;;;;;;5050524;28;20124;-56
2023/05/15 06:24:51;;;;;;;65.47;37.47;;;;;;;;;;5051749;28;20110;-55
2023/05/15 06:27:16;;;;;;;62.15;34.75;;;;;;;;;;5052252;28;20032;-54
2023/05/15 06:29:42;;;;;;;52.05;32.95;;;;;;;;;;5052153;28;20021;-54
2023/05/15 06:32:08;;;;;;;49.40;32.35;;;;;;;;;;5051753;28;20116;-58
2023/05/15 06:34:34;;;;;;;52.00;35.28;;;;;;;;;;5050829;28;20083;-54
2023/05/15 06:37:01;;;;;;;53.60;34.05;;;;;;;;;;5052064;28;20411;-55
2023/05/15 06:39:27;;;;;;;53.63;37.00;;;;;;;;;;5050585;28;20351;-56
2023/05/15 06:41:56;;;;;;;53.63;35.08;;;;;;;;;;5052400;28;20491;-52
2023/05/15 06:44:23;;;;;;;50.83;35.38;;;;;;;;;;5052210;28;20548;-56
2023/05/15 06:46:49;;;;;;;54.42;36.95;;;;;;;;;;5050972;28;20120;-56
2023/05/15 06:49:15;;;;;;;52.35;33.63;;;;;;;;;;5051294;28;20017;-57
2023/05/15 06:51:41;;;;;;;56.03;39.80;;;;;;;;;;5051018;28;20029;-59
2023/05/15 06:54:07;;;;;;;56.30;39.40;;;;;;;;;;5052345;28;20452;-53
2023/05/15 06:56:33;;;;;;;58.45;39.15;;;;;;;;;;5052582;28;20401;-57
2023/05/15 06:58:59;;;;;;;50.40;36.55;;;;;;;;;;5052237;28;20040;-59
2023/05/15 07:01:25;;;;;;;54.55;39.42;;;;;;;;;;5051369;28;20021;-53
2023/05/15 07:03:51;;;;;;;53.33;37.00;;;;;;;;;;5054393;28;20503;-54
2023/05/15 07:06:16;;;;;;;48.80;34.58;;;;;;;;;;5055905;28;20032;-57
2023/05/15 07:08:42;;;;;;;51.65;36.03;;;;;;;;;;5055991;28;20048;-58
2023/05/15 07:11:09;;;;;;;46.88;34.70;;;;;;;;;;5054753;28;20311;-58
2023/05/15 07:13:35;;;;;;;48.55;34.50;;;;;;;;;;5054713;28;20529;-58
2023/05/15 07:16:02;;;;;;;46.72;35.03;;;;;;;;;;5055586;28;20120;-58
2023/05/15 07:18:28;;;;;;;46.13;32.10;;;;;;;;;;5054248;28;20033;-55
2023/05/15 07:20:54;;;;;;;51.22;36.13;;;;;;;;;;5055306;28;20083;-57
2023/05/15 07:23:20;;;;;;;50.83;34.80;;;;;;;;;;5055705;28;20021;-56
2023/05/15 07:25:46;;;;;;;45.95;33.72;;;;;;;;;;5053966;28;20372;-56
2023/05/15 07:28:12;;;;;;;44.47;33.22;;;;;;;;;;5055399;28;20025;-56
2023/05/15 07:30:37;;;;;;;45.72;33.70;;;;;;;;;;5055095;28;20028;-57
2023/05/15 07:33:03;;;;;;;43.03;31.63;;;;;;;;;;5055258;28;20116;-57
2023/05/15 07:35:30;;;;;;;44.38;31.33;;;;;;;;;;5054842;28;20021;-59
2023/05/15 07:37:56;;;;;;;43.63;29.95;;;;;;;;;;5055481;28;20401;-57
2023/05/15 07:40:22;;;;;;;44.70;31.77;;;;;;;;;;5055178;28;20025;-59
2023/05/15 07:42:47;;;;;;;43.85;31.48;;;;;;;;;;5054637;28;20024;-52
2023/05/15 07:45:13;;;;;;;44.83;31.90;;;;;;;;;;5054811;28;20025;-55
2023/05/15 07:47:44;;;;;;;47.10;33.25;;;;;;;;;;5053616;28;20116;-58
2023/05/15 07:50:10;;;;;;;43.20;32.72;;;;;;;;;;5053580;28;20035;-56
2023/05/15 07:52:36;;;;;;;40.20;29.38;;;;;;;;;;5054398;28;20029;-59
2023/05/15 07:55:03;;;;;;;42.58;31.20;;;;;;;;;;5054484;28;20036;-58
2023/05/15 07:57:30;;;;;;;41.95;29.55;;;;;;;;;;5052749;28;20044;-51
2023/05/15 07:59:56;;;;;;;41.45;31.13;;;;;;;;;;5054475;28;20028;-51
2023/05/15 08:02:22;;;;;;;41.00;29.95;;;;;;;;;;5054573;28;20021;-50
2023/05/15 08:04:48;;;;;;;37.50;28.50;;;;;;;;;;5054341;28;20031;-53
2023/05/15 08:07:14;;;;;;;38.72;29.00;;;;;;;;;;5054749;28;20510;-50
2023/05/15 08:09:41;;;;;;;40.97;30.58;;;;;;;;;;5053570;28;20033;-52
2023/05/15 08:12:22;;;;;;;43.25;30.65;;;;;;;;;;5054368;28;20029;-52
2023/05/15 08:14:49;;;;;;;42.25;28.45;;;;;;;;;;5052322;28;20116;-54
2023/05/15 08:17:15;;;;;;;36.53;28.15;;;;;;;;;;5054431;28;20459;-54
2023/05/15 08:19:41;;;;;;;39.25;29.15;;;;;;;;;;5068413;28;20488;-56
2023/05/15 08:22:07;;;;;;;37.58;28.60;;;;;;;;;;5074304;28;20389;-53
2023/05/15 08:24:33;;;;;;;36.63;28.25;;;;;;;;;;5072354;28;20020;-54
2023/05/15 08:26:59;;;;;;;36.42;26.90;;;;;;;;;;5074026;28;20027;-54
2023/05/15 08:29:26;;;;;;;38.05;27.25;;;;;;;;;;5073752;28;20025;-56
2023/05/15 08:31:52;;;;;;;35.33;26.58;;;;;;;;;;5073869;28;20683;-57
2023/05/15 08:34:18;;;;;;;38.92;28.02;;;;;;;;;;5073664;28;20032;-51
2023/05/15 08:36:44;;;;;;;34.80;26.85;;;;;;;;;;5071814;28;20108;-56
2023/05/15 08:39:10;;;;;;;35.63;27.30;;;;;;;;;;5045910;28;20033;-57
2023/05/15 08:41:50;;;;;;;34.50;25.95;;;;;;;;;;5054004;28;20511;-59
2023/05/15 08:44:16;;;;;;;38.88;28.30;;;;;;;;;;5052696;28;20391;-57
2023/05/15 08:46:42;;;;;;;37.38;26.67;;;;;;;;;;5053752;28;20025;-56
2023/05/15 08:49:28;;;;;;;36.10;26.65;;;;;;;;;;5053377;28;20048;-53
2023/05/15 08:51:55;;;;;;;36.75;27.20;;;;;;;;;;5038167;28;20048;-53
2023/05/15 08:54:21;;;;;;;38.17;28.02;;;;;;;;;;5050095;28;20033;-49
2023/05/15 08:56:47;;;;;;;38.20;29.77;;;;;;;;;;5053079;28;20037;-56
2023/05/15 08:59:13;;;;;;;37.90;27.67;;;;;;;;;;5053363;28;20120;-54
2023/05/15 09:01:39;;;;;;;37.88;28.63;;;;;;;;;;5053817;28;20027;-55
2023/05/15 09:04:05;;;;;;;39.72;29.00;;;;;;;;;;5052450;28;20029;-56
2023/05/15 09:06:33;;;;;;;37.90;28.23;;;;;;;;;;5052887;28;20396;-55
2023/05/15 09:09:01;;;;;;;37.88;28.33;;;;;;;;;;5051324;28;20021;-52
2023/05/15 09:11:28;;;;;;;37.58;29.70;;;;;;;;;;5051255;28;20117;-51
2023/05/15 09:13:57;;;;;;;36.75;27.20;;;;;;;;;;5053377;28;20489;-55
2023/05/15 09:16:23;;;;;;;35.08;26.98;;;;;;;;;;5052775;28;20032;-52
2023/05/15 09:18:49;;;;;;;40.75;29.50;;;;;;;;;;5060242;28;20029;-55
2023/05/15 09:21:23;;;;;;;39.53;30.13;;;;;;;;;;5071561;28;20431;-53
2023/05/15 09:23:49;;;;;;;36.45;28.70;;;;;;;;;;5072920;28;20032;-51
2023/05/15 09:26:15;;;;;;;41.53;29.50;;;;;;;;;;5072337;28;20020;-54
2023/05/15 09:28:41;;;;;;;34.90;26.08;;;;;;;;;;5072729;28;20029;-57
2023/05/15 09:31:08;;;;;;;37.78;28.55;;;;;;;;;;5072759;28;20031;-56
2023/05/15 09:33:35;;;;;;;35.75;27.40;;;;;;;;;;5072761;28;20031;-54
2023/05/15 09:36:02;;;;;;;35.47;27.45;;;;;;;;;;5072626;28;20040;-54
2023/05/15 09:38:29;;;;;;;36.88;27.13;;;;;;;;;;5071769;28;20025;-68
2023/05/15 09:41:03;;;;;;;39.17;28.80;;;;;;;;;;5071012;28;20029;-62
2023/05/15 09:43:32;;;;;;;36.67;25.55;;;;;;;;;;5071242;28;20548;-62
2023/05/15 09:45:58;;;;;;;37.30;28.02;;;;;;;;;;5072151;28;20024;-60
2023/05/15 09:48:24;;;;;;;36.33;27.50;;;;;;;;;;5072538;28;20104;-60
2023/05/15 09:50:50;;;;;;;34.60;24.90;;;;;;;;;;5072292;28;20025;-56
2023/05/15 09:53:17;;;;;;;37.20;27.75;;;;;;;;;;5072468;28;20497;-57
2023/05/15 09:55:43;;;;;;;37.28;27.95;;;;;;;;;;5072037;28;20121;-56
2023/05/15 09:58:09;;;;;;;37.08;27.30;;;;;;;;;;5070405;28;20024;-57
2023/05/15 10:00:36;;;;;;;38.65;27.42;;;;;;;;;;5071800;28;20408;-60
2023/05/15 10:03:02;;;;;;;38.55;28.15;;;;;;;;;;5072224;28;20050;-56
2023/05/15 10:05:29;;;;;;;37.05;27.45;;;;;;;;;;5070896;28;20027;-54
2023/05/15 10:07:55;;;;;;;39.05;29.58;;;;;;;;;;5070698;28;20499;-56
2023/05/15 10:10:21;;;;;;;37.95;27.73;;;;;;;;;;5072128;28;20434;-55
2023/05/15 10:12:48;;;;;;;36.28;28.10;;;;;;;;;;5072160;28;20024;-55
2023/05/15 10:15:15;;;;;;;38.88;28.75;;;;;;;;;;5072957;28;20458;-58
2023/05/15 10:17:41;;;;;;;40.53;28.10;;;;;;;;;;5071993;28;20170;-54
2023/05/15 10:20:07;;;;;;;37.60;27.42;;;;;;;;;;5070204;28;20028;-57
2023/05/15 10:22:37;;;;;;;34.92;25.67;;;;;;;;;;5070859;28;20505;-53
2023/05/15 10:25:09;;;;;;;36.22;28.42;;;;;;;;;;5071013;28;20024;-60
2023/05/15 10:27:36;;;;;;;36.80;28.75;;;;;;;;;;5073215;28;20025;-56
2023/05/15 10:30:03;;;;;;;35.75;28.20;;;;;;;;;;5072294;28;20020;-59
2023/05/15 10:32:29;;;;;;;38.08;28.48;;;;;;;;;;5071987;28;20074;-56
2023/05/15 10:34:56;;;;;;;35.53;25.80;;;;;;;;;;5069809;28;20385;-59
2023/05/15 10:37:22;;;;;;;34.20;25.00;;;;;;;;;;5071757;28;20099;-57
2023/05/15 10:39:49;;;;;;;37.13;27.75;;;;;;;;;;5072090;28;20085;-55
2023/05/15 10:42:16;;;;;;;38.33;30.10;;;;;;;;;;5072194;28;20032;-58
2023/05/15 10:44:42;;;;;;;37.97;30.15;;;;;;;;;;5071736;28;20052;-56
2023/05/15 10:47:08;;;;;;;38.70;30.00;;;;;;;;;;5071546;28;20053;-56
2023/05/15 10:49:35;;;;;;;37.42;28.58;;;;;;;;;;5071814;28;20484;-51
2023/05/15 10:52:01;;;;;;;38.03;29.15;;;;;;;;;;5070824;28;20030;-54
2023/05/15 10:54:28;;;;;;;40.47;29.02;;;;;;;;;;5071993;28;20047;-56
2023/05/15 10:56:55;;;;;;;36.97;29.02;;;;;;;;;;5051749;28;20033;-57
2023/05/15 10:59:29;;;;;;;37.53;30.10;;;;;;;;;;5062522;28;20032;-57
2023/05/15 11:01:55;;;;;;;33.13;26.40;;;;;;;;;;5043960;28;20036;-54
2023/05/15 11:04:22;;;;;;;35.50;27.30;;;;;;;;;;5044469;28;20021;-57
2023/05/15 11:06:49;;;;;;;37.42;28.60;;;;;;;;;;5050126;28;20144;-55
2023/05/15 11:09:23;;;;;;;35.35;27.30;;;;;;;;;;5049561;28;20100;-58
2023/05/15 11:11:52;;;;;;;35.22;27.17;;;;;;;;;;5051432;28;20048;-57
2023/05/15 11:14:18;;;;;;;34.08;25.52;;;;;;;;;;5050279;28;20033;-57
2023/05/15 11:16:52;;;;;;;37.03;27.90;;;;;;;;;;5051065;28;20036;-57
2023/05/15 11:19:21;;;;;;;31.40;24.60;;;;;;;;;;5064037;28;20084;-57
2023/05/15 11:21:48;;;;;;;33.03;25.27;;;;;;;;;;5071873;28;20095;-56
2023/05/15 11:24:14;;;;;;;32.70;26.08;;;;;;;;;;5071101;28;20020;-57
2023/05/15 11:26:42;;;;;;;32.30;26.13;;;;;;;;;;5071740;28;20078;-56
2023/05/15 11:29:18;;;;;;;32.40;25.25;;;;;;;;;;5055304;28;20037;-55
2023/05/15 11:31:44;;;;;;;33.28;26.17;;;;;;;;;;5050912;28;20032;-52
2023/05/15 11:34:10;;;;;;;32.30;24.27;;;;;;;;;;5049812;28;20055;-52
2023/05/15 11:36:40;;;;;;;31.95;23.88;;;;;;;;;;5051408;28;20025;-56
2023/05/15 11:39:11;;;;;;;30.00;24.25;;;;;;;;;;5051092;28;20040;-57
2023/05/15 11:41:38;;;;;;;29.23;21.45;;;;;;;;;;5050710;28;20021;-56
2023/05/15 11:44:04;;;;;;;35.20;25.23;;;;;;;;;;5049207;28;20041;-58
2023/05/15 11:46:31;;;;;;;30.40;24.17;;;;;;;;;;5050938;28;20022;-56
2023/05/15 11:48:57;;;;;;;30.20;24.92;;;;;;;;;;5050848;28;20400;-52
2023/05/15 11:51:26;;;;;;;31.13;24.63;;;;;;;;;;5054643;28;20032;-54
2023/05/15 11:53:53;;;;;;;31.73;25.80;;;;;;;;;;5054525;28;20098;-54
2023/05/15 11:56:20;;;;;;;30.90;26.48;;;;;;;;;;5054528;28;20033;-54
2023/05/15 11:58:56;;;;;;;30.83;24.38;;;;;;;;;;5064369;23;20144;-62
2023/05/15 12:01:23;;;;;;;32.25;26.98;;;;;;;;;;5033305;28;20029;-61
2023/05/15 12:03:49;;;;;;;29.08;25.98;;;;;;;;;;5033677;28;20068;-62
2023/05/15 12:06:15;;;;;;;28.55;25.42;;;;;;;;;;5033075;28;20127;-57
2023/05/15 12:08:42;;;;;;;28.27;25.20;;;;;;;;;;5033456;28;20463;-60
2023/05/15 12:11:08;;;;;;;30.60;24.25;;;;;;;;;;5033538;28;20068;-60
2023/05/15 12:13:34;;;;;;;29.95;25.30;;;;;;;;;;5032823;28;20163;-60
2023/05/15 12:16:02;;;;;;;27.15;23.92;;;;;;;;;;5032805;28;20069;-58
2023/05/15 12:18:28;;;;;;;28.85;24.92;;;;;;;;;;5031602;28;20021;-59
2023/05/15 12:20:54;;;;;;;28.65;24.65;;;;;;;;;;5033159;28;20070;-59
2023/05/15 12:23:21;;;;;;;28.15;23.13;;;;;;;;;;5033312;28;20025;-60
2023/05/15 12:25:49;;;;;;;24.35;21.13;;;;;;;;;;5032509;28;20060;-60
2023/05/15 12:28:15;;;;;;;24.98;21.15;;;;;;;;;;5031574;28;20024;-61
2023/05/15 12:30:41;;;;;;;25.10;22.40;;;;;;;;;;5033334;28;20071;-61
2023/05/15 12:33:08;;;;;;;26.45;21.92;;;;;;;;;;5033169;28;20041;-60
2023/05/15 12:35:35;;;;;;;24.40;20.85;;;;;;;;;;5031460;28;20401;-62
2023/05/15 12:38:04;;;;;;;24.65;20.25;;;;;;;;;;5031037;28;20073;-56
2023/05/15 12:40:34;;;;;;;21.08;18.73;;;;;;;;;;5032572;28;20036;-60
2023/05/15 12:43:04;;;;;;;22.98;18.65;;;;;;;;;;5031215;28;20037;-58
2023/05/15 12:45:32;;;;;;;22.95;19.60;;;;;;;;;;5032019;28;20017;-57
2023/05/15 12:47:58;;;;;;;24.33;19.73;;;;;;;;;;5021578;28;20017;-61
2023/05/15 12:50:25;;;;;;;24.05;19.05;;;;;;;;;;5031758;28;20101;-59
2023/05/15 12:52:52;;;;;;;24.57;19.73;;;;;;;;;;5032485;28;20449;-59
2023/05/15 12:55:30;;;;;;;25.00;20.70;;;;;;;;;;5031996;28;20343;-58
2023/05/15 12:57:57;;;;;;;22.55;20.15;;;;;;;;;;5030813;28;20125;-59
2023/05/15 13:00:23;;;;;;;19.95;17.60;;;;;;;;;;5028919;28;20367;-61
2023/05/15 13:02:50;;;;;;;21.65;16.98;;;;;;;;;;5030541;28;20450;-61
2023/05/15 13:05:16;;;;;;;18.58;15.90;;;;;;;;;;5030127;28;20044;-59
2023/05/15 13:07:43;;;;;;;20.48;15.38;;;;;;;;;;5030320;28;20439;-58
2023/05/15 13:10:09;;;;;;;21.33;17.02;;;;;;;;;;5030227;28;20446;-58
2023/05/15 13:12:39;;;;;;;22.40;17.55;;;;;;;;;;5028750;28;20120;-59
2023/05/15 13:15:06;;;;;;;19.15;16.73;;;;;;;;;;5031807;28;20029;-57
2023/05/15 13:17:33;;;;;;;20.75;17.58;;;;;;;;;;5032983;28;20026;-58
2023/05/15 13:20:00;;;;;;;20.10;17.23;;;;;;;;;;5033047;28;20111;-57
2023/05/15 13:22:26;;;;;;;21.30;17.80;;;;;;;;;;5032649;28;20036;-60
2023/05/15 13:24:52;;;;;;;20.88;17.00;;;;;;;;;;5032164;28;20040;-60
2023/05/15 13:27:19;;;;;;;20.17;16.58;;;;;;;;;;5032287;28;20080;-58
2023/05/15 13:29:45;;;;;;;20.38;17.58;;;;;;;;;;5032250;28;20075;-56
2023/05/15 13:32:11;;;;;;;18.50;16.42;;;;;;;;;;5031600;28;20408;-56
2023/05/15 13:34:37;;;;;;;20.95;17.60;;;;;;;;;;5029860;28;20118;-58
2023/05/15 13:37:03;;;;;;;19.88;17.63;;;;;;;;;;5031114;28;20029;-55
2023/05/15 13:39:29;;;;;;;19.98;16.67;;;;;;;;;;5031281;28;20026;-57
2023/05/15 13:41:55;;;;;;;21.20;16.45;;;;;;;;;;5031484;28;20040;-57
2023/05/15 13:44:21;;;;;;;20.92;17.05;;;;;;;;;;5029811;28;20025;-60
2023/05/15 13:46:47;;;;;;;21.38;17.00;;;;;;;;;;5030818;28;20033;-55
2023/05/15 13:49:13;;;;;;;19.83;16.15;;;;;;;;;;5031015;28;20029;-59
2023/05/15 13:51:39;;;;;;;19.55;17.42;;;;;;;;;;5029974;28;20048;-59
2023/05/15 13:54:05;;;;;;;19.23;16.35;;;;;;;;;;5030739;28;20040;-59
2023/05/15 13:56:31;;;;;;;19.77;16.55;;;;;;;;;;5030849;28;20124;-58
2023/05/15 13:58:57;;;;;;;18.85;16.75;;;;;;;;;;5029207;28;20180;-59
2023/05/15 14:01:23;;;;;;;20.42;17.27;;;;;;;;;;5031023;28;20036;-59
2023/05/15 14:03:50;;;;;;;20.48;17.08;;;;;;;;;;5030812;28;20595;-56
2023/05/15 14:06:16;;;;;;;19.17;15.75;;;;;;;;;;5030935;28;20076;-59
2023/05/15 14:08:42;;;;;;;20.15;16.63;;;;;;;;;;5029468;28;20117;-58
2023/05/15 14:11:08;;;;;;;19.73;16.40;;;;;;;;;;5030668;28;20060;-60
2023/05/15 14:13:34;;;;;;;22.10;15.57;;;;;;;;;;5030709;28;20037;-59